createdAt,value
2019-03-28T00:01:55.761Z,9.44
2019-03-28T00:04:26.124Z,9.46
2019-03-28T00:06:56.488Z,9.53
2019-03-28T00:09:26.837Z,9.46
2019-03-28T00:11:57.192Z,9.32
2019-03-28T00:14:27.560Z,9.17
2019-03-28T00:16:57.909Z,9.28
2019-03-28T00:19:28.268Z,9.24
2019-03-28T00:21:58.617Z,9.09
2019-03-28T00:24:30.626Z,9.16
2019-03-28T00:27:01.097Z,9.09
2019-03-28T00:29:31.453Z,9.13
2019-03-28T00:32:01.803Z,9.05
2019-03-28T00:34:32.185Z,9.04
2019-03-28T00:37:02.554Z,9.08
2019-03-28T00:39:33.875Z,8.96
2019-03-28T00:42:04.230Z,9.30
2019-03-28T00:44:34.581Z,9.24
2019-03-28T00:47:04.982Z,9.19
2019-03-28T00:49:35.350Z,9.07
2019-03-28T00:52:05.712Z,9.24
2019-03-28T00:54:36.054Z,9.27
2019-03-28T00:57:06.401Z,9.17
2019-03-28T00:59:36.752Z,9.25
2019-03-28T01:02:07.101Z,9.22
2019-03-28T01:04:37.435Z,9.25
2019-03-28T01:07:07.801Z,9.20
2019-03-28T01:09:38.175Z,9.30
2019-03-28T01:12:08.535Z,9.17
2019-03-28T01:14:38.911Z,9.13
2019-03-28T01:17:09.293Z,9.13
2019-03-28T01:19:39.629Z,9.22
2019-03-28T01:22:10.033Z,9.29
2019-03-28T01:24:40.358Z,9.28
2019-03-28T01:27:10.703Z,9.33
2019-03-28T01:29:41.053Z,9.37
2019-03-28T01:32:11.428Z,9.22
2019-03-28T01:34:41.785Z,9.26
2019-03-28T01:37:12.177Z,9.35
2019-03-28T01:39:42.603Z,9.29
2019-03-28T01:42:12.967Z,9.35
2019-03-28T01:44:43.337Z,9.21
2019-03-28T01:47:13.664Z,9.16
2019-03-28T01:49:44.030Z,9.25
2019-03-28T01:52:14.386Z,9.38
2019-03-28T01:54:44.738Z,9.42
2019-03-28T01:57:15.117Z,9.39
2019-03-28T01:59:46.318Z,9.42
2019-03-28T02:02:16.781Z,9.27
2019-03-28T02:04:47.141Z,9.31
2019-03-28T02:07:17.515Z,9.27
2019-03-28T02:09:47.877Z,9.34
2019-03-28T02:12:18.227Z,9.31
2019-03-28T02:14:48.579Z,9.27
2019-03-28T02:17:18.938Z,9.45
2019-03-28T02:19:49.303Z,9.43
2019-03-28T02:22:19.680Z,9.36
2019-03-28T02:24:50.089Z,9.38
2019-03-28T02:27:24.274Z,9.43
2019-03-28T02:29:52.497Z,9.35
2019-03-28T02:32:22.944Z,9.45
2019-03-28T02:34:53.276Z,9.43
2019-03-28T02:37:23.631Z,9.48
2019-03-28T02:39:53.982Z,9.31
2019-03-28T02:42:24.348Z,9.15
2019-03-28T02:44:54.701Z,9.15
2019-03-28T02:47:25.051Z,9.00
2019-03-28T02:49:55.411Z,8.91
2019-03-28T02:52:25.780Z,8.83
2019-03-28T02:54:56.179Z,8.98
2019-03-28T02:57:40.161Z,8.83
2019-03-28T02:59:58.549Z,8.79
2019-03-28T03:02:28.913Z,8.87
2019-03-28T03:04:59.274Z,8.93
2019-03-28T03:07:29.798Z,8.89
2019-03-28T03:10:00.418Z,8.94
2019-03-28T03:12:32.141Z,8.96
2019-03-28T03:15:03.593Z,9.11
2019-03-28T03:17:34.275Z,9.14
2019-03-28T03:20:06.148Z,9.03
2019-03-28T03:22:36.522Z,9.13
2019-03-28T03:25:08.004Z,9.07
2019-03-28T03:27:38.404Z,9.32
2019-03-28T03:30:08.782Z,9.29
2019-03-28T03:32:39.149Z,9.18
2019-03-28T03:35:09.476Z,9.42
2019-03-28T03:37:40.804Z,9.34
2019-03-28T03:40:11.207Z,9.37
2019-03-28T03:42:41.581Z,9.49
2019-03-28T03:45:11.914Z,9.57
2019-03-28T03:47:42.302Z,9.41
2019-03-28T03:50:15.926Z,9.59
2019-03-28T03:52:46.279Z,9.62
2019-03-28T03:55:16.629Z,9.60
2019-03-28T03:57:47.007Z,9.50
2019-03-28T04:00:20.617Z,9.61
2019-03-28T04:02:51.059Z,9.50
2019-03-28T04:05:21.525Z,9.28
2019-03-28T04:07:52.123Z,9.30
2019-03-28T04:10:22.455Z,9.26
2019-03-28T04:12:53.009Z,9.33
2019-03-28T04:15:23.500Z,9.34
2019-03-28T04:17:53.924Z,9.61
2019-03-28T04:20:25.403Z,9.60
2019-03-28T04:22:55.918Z,9.63
2019-03-28T04:25:26.324Z,9.86
2019-03-28T04:27:56.810Z,9.80
2019-03-28T04:30:27.326Z,9.92
2019-03-28T04:32:57.827Z,9.97
2019-03-28T04:35:28.277Z,10.03
2019-03-28T04:37:58.911Z,10.21
2019-03-28T04:40:29.404Z,10.17
2019-03-28T04:42:59.825Z,10.36
2019-03-28T04:45:30.224Z,10.36
2019-03-28T04:48:01.515Z,10.43
2019-03-28T04:50:33.012Z,10.41
2019-03-28T04:53:03.423Z,10.39
2019-03-28T04:55:33.842Z,10.31
2019-03-28T04:58:04.256Z,10.50
2019-03-28T05:00:34.678Z,10.60
2019-03-28T05:03:05.106Z,10.42
2019-03-28T05:05:35.521Z,10.34
2019-03-28T05:08:05.955Z,10.37
2019-03-28T05:10:36.359Z,10.51
2019-03-28T05:13:06.785Z,10.46
2019-03-28T05:15:37.203Z,10.33
2019-03-28T05:18:07.716Z,10.40
2019-03-28T05:20:38.141Z,10.47
2019-03-28T05:23:08.735Z,10.48
2019-03-28T05:25:39.153Z,10.53
2019-03-28T05:28:09.584Z,10.51
2019-03-28T05:30:40.216Z,10.53
2019-03-28T05:33:11.215Z,10.53
2019-03-28T05:35:41.643Z,10.54
2019-03-28T05:38:12.170Z,10.70
2019-03-28T05:40:42.807Z,10.73
2019-03-28T05:43:13.283Z,10.90
2019-03-28T05:45:46.286Z,10.85
2019-03-28T05:48:16.097Z,10.77
2019-03-28T05:50:46.614Z,10.74
2019-03-28T05:53:16.976Z,10.72
2019-03-28T05:55:48.401Z,10.60
2019-03-28T05:58:18.786Z,10.67
2019-03-28T06:00:51.283Z,10.68
2019-03-28T06:03:23.278Z,10.59
2019-03-28T06:05:53.771Z,10.46
2019-03-28T06:08:24.219Z,9.92
2019-03-28T06:10:54.698Z,9.86
2019-03-28T06:13:25.068Z,9.66
2019-03-28T06:15:55.527Z,9.74
2019-03-28T06:18:26.288Z,9.73
2019-03-28T06:20:59.504Z,10.00
2019-03-28T06:23:29.004Z,9.94
2019-03-28T06:25:59.637Z,9.87
2019-03-28T06:28:30.035Z,9.94
2019-03-28T06:31:00.388Z,9.92
2019-03-28T06:33:31.232Z,9.98
2019-03-28T06:36:02.357Z,9.69
2019-03-28T06:38:33.083Z,10.13
2019-03-28T06:41:03.888Z,10.14
2019-03-28T06:43:34.379Z,10.57
2019-03-28T06:46:05.991Z,10.91
2019-03-28T06:48:36.419Z,11.24
2019-03-28T06:51:06.758Z,11.40
2019-03-28T06:53:37.127Z,11.14
2019-03-28T06:56:07.502Z,10.69
2019-03-28T06:58:37.881Z,10.51
2019-03-28T07:01:08.334Z,10.29
2019-03-28T07:03:38.906Z,10.38
2019-03-28T07:06:10.252Z,10.33
2019-03-28T07:08:40.604Z,10.31
2019-03-28T07:11:10.971Z,10.37
2019-03-28T07:13:41.341Z,10.36
2019-03-28T07:16:11.720Z,10.34
2019-03-28T07:18:42.108Z,10.45
2019-03-28T07:21:12.919Z,10.42
2019-03-28T07:23:43.534Z,10.58
2019-03-28T07:26:13.920Z,10.66
2019-03-28T07:28:44.286Z,10.95
2019-03-28T07:31:14.675Z,10.63
2019-03-28T07:33:45.104Z,10.89
2019-03-28T07:36:15.527Z,11.22
2019-03-28T07:38:45.901Z,11.05
2019-03-28T07:41:16.699Z,11.22
2019-03-28T07:43:48.264Z,11.29
2019-03-28T07:46:18.639Z,11.30
2019-03-28T07:48:49.042Z,11.38
2019-03-28T07:51:19.414Z,11.52
2019-03-28T07:53:49.795Z,11.38
2019-03-28T07:56:20.161Z,11.41
2019-03-28T07:58:50.544Z,11.30
2019-03-28T08:01:24.098Z,11.56
2019-03-28T08:03:55.958Z,11.57
2019-03-28T08:06:26.445Z,11.95
2019-03-28T08:08:56.862Z,12.35
2019-03-28T08:11:27.426Z,12.46
2019-03-28T08:13:58.807Z,12.70
2019-03-28T08:16:29.177Z,12.86
2019-03-28T08:18:59.542Z,12.93
2019-03-28T08:21:30.200Z,12.99
2019-03-28T08:24:00.577Z,12.87
2019-03-28T08:26:30.928Z,13.28
2019-03-28T08:29:01.327Z,13.31
2019-03-28T08:31:31.683Z,14.80
2019-03-28T08:34:02.159Z,14.96
2019-03-28T08:36:32.534Z,14.98
2019-03-28T08:39:03.183Z,14.87
2019-03-28T08:41:36.173Z,15.64
2019-03-28T08:44:07.410Z,15.20
2019-03-28T08:46:39.226Z,14.50
2019-03-28T08:49:09.602Z,14.00
2019-03-28T08:51:40.042Z,13.81
2019-03-28T08:54:10.410Z,13.96
2019-03-28T08:56:40.754Z,13.44
2019-03-28T08:59:11.329Z,13.37
2019-03-28T09:01:41.691Z,13.44
2019-03-28T09:04:12.035Z,13.11
2019-03-28T09:06:42.386Z,13.33
2019-03-28T09:09:12.738Z,13.46
2019-03-28T09:11:43.416Z,13.42
2019-03-28T09:14:13.810Z,14.29
2019-03-28T09:16:44.199Z,14.44
2019-03-28T09:19:14.571Z,13.98
2019-03-28T09:21:44.943Z,14.05
2019-03-28T09:24:15.293Z,14.04
2019-03-28T09:26:45.671Z,14.30
2019-03-28T09:29:16.015Z,14.22
2019-03-28T09:31:46.372Z,14.12
2019-03-28T09:34:16.765Z,13.98
2019-03-28T09:36:47.448Z,14.46
2019-03-28T09:39:17.807Z,15.11
2019-03-28T09:41:48.233Z,16.21
2019-03-28T09:44:18.630Z,16.75
2019-03-28T09:46:49.028Z,16.42
2019-03-28T09:49:19.384Z,16.17
2019-03-28T09:51:49.758Z,15.52
2019-03-28T09:54:20.154Z,14.37
2019-03-28T09:56:50.544Z,14.51
2019-03-28T09:59:20.920Z,14.10
2019-03-28T10:01:51.305Z,13.99
2019-03-28T10:04:21.719Z,14.07
2019-03-28T10:06:52.095Z,14.23
2019-03-28T10:09:22.673Z,14.22
2019-03-28T10:11:53.020Z,14.22
2019-03-28T10:14:23.392Z,14.19
2019-03-28T10:16:53.763Z,14.03
2019-03-28T10:19:24.184Z,14.08
2019-03-28T10:21:54.537Z,13.75
2019-03-28T10:24:24.889Z,14.24
2019-03-28T10:26:55.236Z,14.67
2019-03-28T10:29:25.600Z,14.77
2019-03-28T10:31:55.937Z,14.91
2019-03-28T10:34:26.292Z,14.89
2019-03-28T10:36:56.640Z,15.27
2019-03-28T10:39:27.019Z,15.27
2019-03-28T10:41:57.387Z,14.84
2019-03-28T10:44:27.789Z,14.81
2019-03-28T10:46:58.169Z,14.97
2019-03-28T10:49:28.595Z,15.13
2019-03-28T10:51:58.995Z,15.09
2019-03-28T10:54:29.354Z,14.45
2019-03-28T10:57:12.984Z,14.72
2019-03-28T10:59:31.836Z,14.56
2019-03-28T11:02:02.199Z,14.72
2019-03-28T11:04:32.565Z,14.90
2019-03-28T11:07:03.890Z,14.37
2019-03-28T11:09:34.664Z,14.13
2019-03-28T11:12:05.205Z,14.13
2019-03-28T11:14:35.563Z,14.40
2019-03-28T11:17:06.154Z,14.71
2019-03-28T11:19:36.552Z,15.19
2019-03-28T11:22:08.010Z,15.04
2019-03-28T11:24:38.353Z,14.94
2019-03-28T11:27:08.732Z,14.25
2019-03-28T11:29:39.129Z,14.41
2019-03-28T11:32:09.512Z,14.53
2019-03-28T11:34:40.825Z,14.45
2019-03-28T11:37:24.931Z,14.12
2019-03-28T11:39:43.374Z,14.03
2019-03-28T11:42:13.801Z,14.31
2019-03-28T11:44:44.175Z,14.27
2019-03-28T11:47:14.533Z,14.55
2019-03-28T11:49:45.001Z,14.72
2019-03-28T11:52:15.405Z,14.73
2019-03-28T11:54:45.753Z,15.02
2019-03-28T11:57:16.400Z,14.87
2019-03-28T11:59:46.761Z,15.32
2019-03-28T12:02:20.298Z,15.36
2019-03-28T12:04:49.201Z,14.87
2019-03-28T12:07:19.559Z,14.91
2019-03-28T12:09:49.954Z,15.11
2019-03-28T12:12:20.301Z,15.27
2019-03-28T12:14:50.756Z,14.93
2019-03-28T12:17:21.335Z,14.82
2019-03-28T12:19:51.687Z,15.00
2019-03-28T12:22:23.121Z,15.02
2019-03-28T12:24:53.486Z,15.03
2019-03-28T12:27:23.927Z,15.00
2019-03-28T12:29:54.286Z,15.10
2019-03-28T12:32:24.623Z,15.01
2019-03-28T12:34:54.989Z,14.58
2019-03-28T12:37:26.369Z,14.65
2019-03-28T12:39:59.873Z,14.36
2019-03-28T12:42:28.802Z,14.45
2019-03-28T12:45:00.553Z,14.04
2019-03-28T12:47:41.724Z,13.80
2019-03-28T12:50:06.000Z,13.71
2019-03-28T12:52:37.294Z,13.75
2019-03-28T12:55:07.742Z,13.76
2019-03-28T12:57:38.454Z,14.31
2019-03-28T13:00:10.158Z,14.08
2019-03-28T13:02:40.524Z,14.27
2019-03-28T13:05:10.882Z,14.35
2019-03-28T13:07:41.257Z,14.18
2019-03-28T13:10:11.725Z,14.40
2019-03-28T13:12:42.098Z,14.66
2019-03-28T13:15:13.025Z,14.56
2019-03-28T13:17:43.987Z,14.83
2019-03-28T13:20:14.342Z,14.72
2019-03-28T13:22:44.747Z,14.58
2019-03-28T13:25:15.114Z,14.46
2019-03-28T13:27:46.007Z,14.39
2019-03-28T13:30:16.486Z,14.47
2019-03-28T13:32:46.858Z,14.53
2019-03-28T13:35:17.202Z,14.63
2019-03-28T13:37:47.537Z,14.57
2019-03-28T13:40:17.884Z,14.75
2019-03-28T13:42:48.272Z,14.66
2019-03-28T13:45:20.340Z,14.77
2019-03-28T13:47:54.170Z,15.01
2019-03-28T13:50:22.815Z,14.94
2019-03-28T13:52:53.572Z,14.77
2019-03-28T13:55:24.239Z,14.76
2019-03-28T13:57:54.603Z,14.73
2019-03-28T14:00:30.030Z,14.72
2019-03-28T14:03:00.374Z,14.80
2019-03-28T14:05:30.772Z,14.91
2019-03-28T14:08:01.202Z,14.98
2019-03-28T14:10:31.551Z,15.09
2019-03-28T14:13:01.904Z,15.07
2019-03-28T14:15:32.276Z,15.13
2019-03-28T14:18:02.635Z,15.11
2019-03-28T14:20:34.286Z,15.13
2019-03-28T14:23:04.662Z,15.13
2019-03-28T14:25:35.008Z,15.13
2019-03-28T14:28:05.362Z,15.06
2019-03-28T14:30:35.735Z,14.86
2019-03-28T14:33:11.663Z,14.32
2019-03-28T14:35:39.150Z,14.29
2019-03-28T14:38:09.756Z,14.51
2019-03-28T14:40:40.118Z,14.13
2019-03-28T14:43:11.584Z,13.95
2019-03-28T14:45:41.957Z,13.98
2019-03-28T14:48:12.345Z,13.91
2019-03-28T14:50:42.815Z,13.97
2019-03-28T14:53:13.204Z,13.91
2019-03-28T14:55:43.560Z,13.87
2019-03-28T14:58:13.944Z,13.80
2019-03-28T15:00:51.636Z,13.85
2019-03-28T15:03:26.952Z,13.80
2019-03-28T15:05:54.137Z,13.31
2019-03-28T15:08:24.502Z,13.05
2019-03-28T15:10:54.931Z,13.33
2019-03-28T15:13:26.229Z,13.56
2019-03-28T15:15:56.801Z,13.52
2019-03-28T15:18:27.167Z,13.59
2019-03-28T15:20:57.598Z,13.78
2019-03-28T15:23:28.143Z,13.83
2019-03-28T15:25:58.624Z,13.78
2019-03-28T15:28:30.065Z,13.95
2019-03-28T15:31:00.541Z,14.04
2019-03-28T15:33:39.526Z,14.19
2019-03-28T15:36:03.186Z,14.18
2019-03-28T15:38:34.073Z,13.91
2019-03-28T15:41:04.456Z,13.97
2019-03-28T15:43:34.824Z,13.96
2019-03-28T15:46:06.681Z,13.44
2019-03-28T15:48:37.928Z,13.15
2019-03-28T15:51:08.697Z,13.07
2019-03-28T15:53:39.487Z,12.98
2019-03-28T15:56:09.910Z,12.90
2019-03-28T15:58:40.753Z,12.97
2019-03-28T16:01:11.245Z,13.19
2019-03-28T16:03:52.350Z,13.35
2019-03-28T16:06:14.624Z,13.31
2019-03-28T16:08:45.436Z,13.45
2019-03-28T16:11:15.893Z,13.33
2019-03-28T16:13:46.371Z,13.24
2019-03-28T16:16:16.743Z,13.30
2019-03-28T16:18:47.150Z,13.46
2019-03-28T16:21:17.676Z,13.57
2019-03-28T16:23:48.179Z,13.61
2019-03-28T16:26:18.606Z,13.51
2019-03-28T16:28:48.971Z,13.54
2019-03-28T16:31:19.358Z,13.61
2019-03-28T16:33:49.976Z,13.66
2019-03-28T16:36:20.491Z,13.62
2019-03-28T16:38:50.944Z,13.59
2019-03-28T16:41:22.371Z,13.62
2019-03-28T16:43:52.785Z,13.61
2019-03-28T16:46:23.161Z,13.50
2019-03-28T16:48:53.578Z,13.39
2019-03-28T16:51:23.978Z,13.22
2019-03-28T16:53:54.347Z,13.16
2019-03-28T16:56:24.752Z,13.00
2019-03-28T16:58:55.502Z,12.91
2019-03-28T17:01:26.405Z,12.37
2019-03-28T17:03:56.903Z,12.21
2019-03-28T17:06:27.587Z,12.13
2019-03-28T17:08:58.291Z,11.95
2019-03-28T17:11:30.560Z,11.89
2019-03-28T17:14:00.938Z,12.16
2019-03-28T17:16:31.466Z,12.18
2019-03-28T17:19:01.820Z,12.11
2019-03-28T17:21:32.972Z,12.10
2019-03-28T17:24:04.278Z,12.14
2019-03-28T17:26:34.687Z,12.09
2019-03-28T17:29:05.120Z,12.08
2019-03-28T17:31:36.164Z,12.01
2019-03-28T17:34:06.529Z,11.90
2019-03-28T17:36:36.925Z,11.98
2019-03-28T17:39:07.426Z,11.97
2019-03-28T17:41:37.939Z,11.96
2019-03-28T17:44:08.492Z,12.06
2019-03-28T17:46:39.208Z,12.08
2019-03-28T17:49:09.936Z,12.06
2019-03-28T17:51:40.677Z,11.99
2019-03-28T17:54:11.845Z,12.08
2019-03-28T17:56:42.599Z,11.99
2019-03-28T17:59:12.983Z,12.01
2019-03-28T18:01:43.371Z,11.93
2019-03-28T18:04:22.662Z,11.75
2019-03-28T18:06:46.395Z,11.78
2019-03-28T18:09:16.818Z,11.67
2019-03-28T18:11:48.859Z,11.76
2019-03-28T18:14:21.535Z,11.70
2019-03-28T18:16:52.187Z,11.82
2019-03-28T18:19:23.092Z,11.89
2019-03-28T18:22:03.227Z,11.82
2019-03-28T18:24:26.109Z,11.82
2019-03-28T18:26:56.832Z,11.93
2019-03-28T18:29:27.921Z,11.81
2019-03-28T18:32:00.299Z,11.65
2019-03-28T18:34:31.431Z,11.62
2019-03-28T18:37:02.414Z,11.53
2019-03-28T18:39:33.469Z,11.41
2019-03-28T18:42:05.129Z,11.85
2019-03-28T18:44:36.747Z,11.67
2019-03-28T18:47:08.203Z,11.54
2019-03-28T18:49:38.665Z,11.26
2019-03-28T18:52:09.366Z,11.13
2019-03-28T18:54:39.784Z,11.12
2019-03-28T18:57:10.222Z,11.23
2019-03-28T18:59:40.687Z,11.19
2019-03-28T19:02:11.125Z,11.14
2019-03-28T19:04:41.518Z,11.16
2019-03-28T19:07:11.908Z,11.07
2019-03-28T19:09:42.354Z,11.12
2019-03-28T19:12:12.858Z,11.16
2019-03-28T19:14:46.130Z,11.24
2019-03-28T19:17:16.226Z,11.22
2019-03-28T19:19:47.236Z,11.34
2019-03-28T19:22:18.167Z,11.13
2019-03-28T19:24:49.344Z,11.20
2019-03-28T19:27:21.210Z,11.20
2019-03-28T19:29:53.432Z,11.35
2019-03-28T19:32:23.774Z,11.24
2019-03-28T19:34:54.225Z,11.32
2019-03-28T19:37:25.014Z,11.33
2019-03-28T19:39:56.533Z,11.41
2019-03-28T19:42:27.743Z,11.39
2019-03-28T19:44:59.005Z,11.40
2019-03-28T19:47:30.060Z,11.30
2019-03-28T19:50:00.454Z,11.25
2019-03-28T19:52:31.080Z,11.16
2019-03-28T19:55:02.279Z,11.16
2019-03-28T19:57:33.126Z,11.19
2019-03-28T20:00:07.305Z,11.30
2019-03-28T20:02:38.287Z,11.19
2019-03-28T20:05:10.399Z,11.28
2019-03-28T20:07:40.751Z,11.17
2019-03-28T20:10:16.578Z,10.98
2019-03-28T20:12:43.264Z,10.98
2019-03-28T20:15:15.864Z,10.79
2019-03-28T20:17:47.946Z,10.81
2019-03-28T20:20:18.516Z,10.77
2019-03-28T20:22:49.252Z,10.89
2019-03-28T20:25:20.154Z,10.93
2019-03-28T20:27:50.989Z,10.94
2019-03-28T20:30:24.396Z,10.95
2019-03-28T20:32:55.593Z,10.84
2019-03-28T20:35:26.539Z,10.86
2019-03-28T20:37:57.381Z,10.87
2019-03-28T20:40:29.454Z,10.85
2019-03-28T20:43:00.793Z,10.88
2019-03-28T20:45:32.020Z,10.68
2019-03-28T20:48:02.928Z,10.80
2019-03-28T20:50:33.437Z,10.80
2019-03-28T20:53:04.421Z,10.85
2019-03-28T20:55:36.866Z,10.87
2019-03-28T20:58:07.764Z,10.88
2019-03-28T21:00:43.625Z,10.90
2019-03-28T21:03:15.413Z,11.04
2019-03-28T21:05:45.996Z,10.99
2019-03-28T21:08:17.027Z,10.95
2019-03-28T21:10:47.849Z,10.84
2019-03-28T21:13:18.222Z,11.00
2019-03-28T21:15:49.076Z,10.99
2019-03-28T21:18:19.533Z,10.72
2019-03-28T21:20:50.084Z,10.92
2019-03-28T21:23:20.796Z,10.98
2019-03-28T21:25:51.174Z,11.11
2019-03-28T21:28:21.555Z,11.17
2019-03-28T21:30:51.937Z,11.22
2019-03-28T21:33:23.483Z,11.20
2019-03-28T21:35:54.726Z,11.16
2019-03-28T21:38:25.123Z,11.16
2019-03-28T21:40:55.518Z,11.24
2019-03-28T21:43:27.152Z,11.20
2019-03-28T21:45:57.944Z,11.18
2019-03-28T21:48:28.382Z,11.26
2019-03-28T21:50:58.753Z,11.29
2019-03-28T21:53:29.129Z,11.41
2019-03-28T21:55:59.506Z,11.48
2019-03-28T21:58:30.114Z,11.48
2019-03-28T22:01:01.184Z,11.59
2019-03-28T22:03:31.567Z,11.55
2019-03-28T22:06:03.797Z,11.59
2019-03-28T22:08:34.479Z,11.71
2019-03-28T22:11:04.896Z,11.68
2019-03-28T22:13:35.301Z,11.72
2019-03-28T22:16:07.631Z,11.73
2019-03-28T22:18:37.893Z,11.70
2019-03-28T22:21:08.366Z,11.75
2019-03-28T22:23:38.683Z,11.86
2019-03-28T22:26:09.085Z,11.74
2019-03-28T22:28:39.919Z,11.71
2019-03-28T22:31:10.308Z,11.71
2019-03-28T22:33:41.808Z,11.66
2019-03-28T22:36:12.298Z,11.74
2019-03-28T22:38:42.815Z,11.83
2019-03-28T22:41:13.189Z,11.87
2019-03-28T22:43:43.567Z,11.70
2019-03-28T22:48:37.184Z,11.83
2019-03-28T22:51:10.478Z,11.85
2019-03-28T22:53:40.860Z,11.76
2019-03-28T22:56:11.238Z,11.87
2019-03-28T22:58:41.614Z,11.72
2019-03-28T23:01:11.980Z,11.65
2019-03-28T23:03:42.341Z,11.67
2019-03-28T23:06:12.734Z,11.73
2019-03-28T23:08:43.127Z,11.78
2019-03-28T23:11:13.920Z,11.83
2019-03-28T23:13:44.556Z,11.92
2019-03-28T23:16:14.927Z,11.97
2019-03-28T23:18:45.480Z,11.86
2019-03-28T23:21:16.174Z,11.85
2019-03-28T23:23:47.087Z,11.83
2019-03-28T23:26:17.449Z,11.88
2019-03-28T23:28:47.885Z,11.78
2019-03-28T23:31:19.020Z,11.73
2019-03-28T23:33:50.459Z,11.77
2019-03-28T23:36:20.846Z,11.83
2019-03-28T23:38:51.249Z,11.69
2019-03-28T23:41:21.860Z,11.57
2019-03-28T23:43:52.271Z,11.42
2019-03-28T23:46:22.636Z,11.36
2019-03-28T23:48:53.009Z,11.29
2019-03-28T23:51:23.442Z,11.13
2019-03-28T23:53:54.619Z,11.19
2019-03-28T23:56:25.004Z,11.22
2019-03-28T23:58:55.458Z,11.26
